TimeCST,TemperatureF,Dew PointF,Humidity,Sea Level PressureIn,VisibilityMPH,Wind Direction,Wind SpeedMPH,Gust SpeedMPH,PrecipitationIn,Events,Conditions,WindDirDegrees,DateUTC
12:15 AM,25.3,13.3,60,29.91,10.0,Calm,Calm,-,N/A,,Overcast,0,2012-12-11 06:15:00
12:35 AM,26.2,13.6,59,29.91,10.0,West,4.6,-,N/A,,Overcast,280,2012-12-11 06:35:00
12:55 AM,25.2,13.8,62,29.91,10.0,West,4.6,-,N/A,,Overcast,280,2012-12-11 06:55:00
1:15 AM,26.4,14.5,61,29.90,10.0,West,6.9,-,N/A,,Overcast,260,2012-12-11 07:15:00
1:35 AM,27.5,15.6,61,29.91,10.0,West,5.8,-,N/A,,Overcast,270,2012-12-11 07:35:00
1:55 AM,29.1,16.5,59,29.92,10.0,West,9.2,-,N/A,,Overcast,260,2012-12-11 07:55:00
2:15 AM,28.6,16.2,60,29.92,10.0,West,10.4,-,N/A,,Mostly Cloudy,260,2012-12-11 08:15:00
2:35 AM,29.3,16.3,58,29.93,10.0,West,8.1,-,N/A,,Overcast,270,2012-12-11 08:35:00
2:55 AM,28.4,16.2,60,29.92,10.0,West,8.1,-,N/A,,Mostly Cloudy,270,2012-12-11 08:55:00
3:15 AM,26.2,16.3,66,29.92,10.0,West,6.9,-,N/A,,Scattered Clouds,260,2012-12-11 09:15:00
3:35 AM,24.8,16.3,70,29.93,10.0,West,8.1,-,N/A,,Clear,270,2012-12-11 09:35:00
3:55 AM,21.6,14.5,74,29.93,10.0,West,6.9,-,N/A,,Clear,280,2012-12-11 09:55:00
4:15 AM,18.3,13.1,80,29.94,10.0,West,6.9,-,N/A,,Clear,280,2012-12-11 10:15:00
4:35 AM,17.6,13.1,83,29.94,10.0,West,6.9,-,N/A,,Clear,270,2012-12-11 10:35:00
4:55 AM,18.1,14.7,86,29.94,10.0,West,8.1,-,N/A,,Clear,270,2012-12-11 10:55:00
5:15 AM,21.9,18.3,86,29.94,10.0,West,8.1,-,N/A,,Clear,270,2012-12-11 11:15:00
5:35 AM,24.4,19.2,81,29.96,10.0,West,6.9,-,N/A,,Clear,260,2012-12-11 11:35:00
5:55 AM,21.9,16.3,79,29.96,10.0,West,5.8,-,N/A,,Clear,260,2012-12-11 11:55:00
6:15 AM,18.9,15.4,87,29.96,10.0,WSW,4.6,-,N/A,,Clear,250,2012-12-11 12:15:00
6:35 AM,23.0,18.3,82,29.96,10.0,WSW,5.8,-,N/A,,Clear,240,2012-12-11 12:35:00
6:55 AM,23.5,18.5,81,29.96,10.0,WSW,8.1,-,N/A,,Clear,240,2012-12-11 12:55:00
7:15 AM,23.5,18.5,81,29.97,10.0,WSW,6.9,-,N/A,,Clear,240,2012-12-11 13:15:00
7:35 AM,23.0,18.5,83,29.97,10.0,WSW,9.2,-,N/A,,Clear,240,2012-12-11 13:35:00
8:15 AM,24.6,19.0,79,29.98,10.0,WSW,5.8,-,N/A,,Clear,240,2012-12-11 14:15:00
8:35 AM,25.5,19.6,78,29.99,10.0,WSW,11.5,-,N/A,,Clear,240,2012-12-11 14:35:00
8:55 AM,26.8,20.1,76,29.99,10.0,WSW,11.5,16.1,N/A,,Mostly Cloudy,240,2012-12-11 14:55:00
9:15 AM,27.7,20.8,75,29.99,10.0,WSW,11.5,-,N/A,,Overcast,250,2012-12-11 15:15:00
9:35 AM,28.4,20.8,73,30.00,10.0,WSW,9.2,-,N/A,,Mostly Cloudy,250,2012-12-11 15:35:00
9:55 AM,30.7,21.6,69,30.00,10.0,West,9.2,-,N/A,,Scattered Clouds,260,2012-12-11 15:55:00
10:15 AM,32.2,21.9,66,30.00,10.0,WSW,8.1,-,N/A,,Clear,250,2012-12-11 16:15:00
10:35 AM,35.1,22.3,60,30.00,10.0,West,11.5,-,N/A,,Clear,260,2012-12-11 16:35:00
10:55 AM,36.1,21.7,56,30.00,10.0,West,16.1,19.6,N/A,,Clear,260,2012-12-11 16:55:00
11:15 AM,37.4,22.1,54,30.00,10.0,West,12.7,18.4,N/A,,Clear,260,2012-12-11 17:15:00
11:35 AM,38.7,22.1,51,29.99,10.0,West,9.2,-,N/A,,Clear,260,2012-12-11 17:35:00
11:55 AM,40.3,21.4,47,29.98,10.0,West,12.7,16.1,N/A,,Clear,260,2012-12-11 17:55:00
12:15 PM,41.9,21.7,45,29.97,10.0,West,12.7,-,N/A,,Clear,260,2012-12-11 18:15:00
12:35 PM,42.3,21.9,44,29.97,10.0,WSW,16.1,-,N/A,,Clear,250,2012-12-11 18:35:00
12:55 PM,42.6,21.9,44,29.97,10.0,West,15.0,-,N/A,,Clear,260,2012-12-11 18:55:00
1:15 PM,42.6,21.7,44,29.96,10.0,West,15.0,-,N/A,,Clear,270,2012-12-11 19:15:00
1:35 PM,42.4,22.1,44,29.96,10.0,WSW,10.4,-,N/A,,Clear,250,2012-12-11 19:35:00
1:55 PM,42.4,21.7,44,29.95,10.0,West,10.4,-,N/A,,Clear,260,2012-12-11 19:55:00
2:15 PM,42.8,21.0,42,29.94,10.0,WSW,8.1,-,N/A,,Clear,250,2012-12-11 20:15:00
2:35 PM,43.0,21.2,42,29.94,10.0,West,9.2,-,N/A,,Clear,270,2012-12-11 20:35:00
2:55 PM,43.2,20.3,40,29.94,10.0,West,10.4,-,N/A,,Clear,260,2012-12-11 20:55:00
3:15 PM,43.5,20.1,39,29.94,10.0,WSW,8.1,-,N/A,,Clear,240,2012-12-11 21:15:00
3:35 PM,43.3,19.9,39,29.94,10.0,WSW,6.9,-,N/A,,Clear,240,2012-12-11 21:35:00
3:55 PM,43.0,19.8,40,29.94,10.0,WSW,10.4,-,N/A,,Clear,250,2012-12-11 21:55:00
4:15 PM,42.1,19.9,41,29.94,10.0,WSW,5.8,-,N/A,,Clear,240,2012-12-11 22:15:00
4:35 PM,40.8,20.3,44,29.94,10.0,SW,4.6,-,N/A,,Clear,230,2012-12-11 22:35:00
4:55 PM,39.4,20.7,47,29.94,10.0,Calm,Calm,-,N/A,,Clear,0,2012-12-11 22:55:00
5:15 PM,39.0,20.8,48,29.94,10.0,Calm,Calm,-,N/A,,Clear,0,2012-12-11 23:15:00
5:35 PM,37.6,21.0,51,29.94,10.0,Calm,Calm,-,N/A,,Clear,0,2012-12-11 23:35:00
5:55 PM,36.0,20.8,54,29.94,10.0,South,4.6,-,N/A,,Clear,190,2012-12-11 23:55:00
6:15 PM,36.3,20.3,52,29.94,10.0,SSW,3.5,-,N/A,,Clear,200,2012-12-12 00:15:00
6:35 PM,34.0,20.3,57,29.96,10.0,SSW,3.5,-,N/A,,Clear,200,2012-12-12 00:35:00
6:55 PM,32.7,19.2,58,29.96,10.0,South,3.5,-,N/A,,Clear,190,2012-12-12 00:55:00
7:15 PM,28.4,18.1,65,29.96,10.0,SSW,3.5,-,N/A,,Clear,200,2012-12-12 01:15:00
7:35 PM,33.3,19.4,57,29.96,10.0,South,4.6,-,N/A,,Clear,190,2012-12-12 01:35:00
7:55 PM,33.3,19.2,56,29.97,10.0,South,6.9,-,N/A,,Clear,190,2012-12-12 01:55:00
8:15 PM,34.5,19.0,53,29.97,10.0,South,6.9,-,N/A,,Clear,190,2012-12-12 02:15:00
8:35 PM,34.2,18.1,52,29.97,10.0,SSW,8.1,-,N/A,,Clear,200,2012-12-12 02:35:00
8:55 PM,34.2,18.0,52,29.97,10.0,South,9.2,-,N/A,,Clear,190,2012-12-12 02:55:00
9:15 PM,33.6,17.6,52,29.97,10.0,South,8.1,-,N/A,,Clear,190,2012-12-12 03:15:00
9:35 PM,33.8,17.6,52,29.97,10.0,South,10.4,-,N/A,,Clear,190,2012-12-12 03:35:00
9:55 PM,33.8,17.6,52,29.96,10.0,South,10.4,-,N/A,,Clear,190,2012-12-12 03:55:00
10:15 PM,32.9,17.6,53,29.96,10.0,South,11.5,-,N/A,,Clear,190,2012-12-12 04:15:00
10:35 PM,32.9,17.6,53,29.96,10.0,South,10.4,16.1,N/A,,Clear,190,2012-12-12 04:35:00
10:55 PM,32.5,17.6,54,29.96,10.0,South,11.5,-,N/A,,Clear,190,2012-12-12 04:55:00
11:15 PM,32.2,17.6,55,29.96,10.0,South,10.4,-,N/A,,Clear,180,2012-12-12 05:15:00
11:35 PM,32.2,17.6,55,29.96,10.0,South,11.5,-,N/A,,Clear,190,2012-12-12 05:35:00
11:55 PM,32.0,17.6,55,29.97,10.0,South,11.5,19.6,N/A,,Clear,190,2012-12-12 05:55:00